createdAt,value
2019-05-02T00:01:57.520Z,16.32
2019-05-02T00:04:28.716Z,16.26
2019-05-02T00:07:04.328Z,16.19
2019-05-02T00:09:35.680Z,16.10
2019-05-02T00:12:08.564Z,15.87
2019-05-02T00:14:40.019Z,15.86
2019-05-02T00:17:10.942Z,15.74
2019-05-02T00:19:45.127Z,15.70
2019-05-02T00:22:17.185Z,15.66
2019-05-02T00:24:48.198Z,15.66
2019-05-02T00:27:20.266Z,15.56
2019-05-02T00:29:53.782Z,15.50
2019-05-02T00:32:24.097Z,15.48
2019-05-02T00:34:55.453Z,15.44
2019-05-02T00:37:26.885Z,15.40
2019-05-02T00:39:58.199Z,15.38
2019-05-02T00:42:29.402Z,15.32
2019-05-02T00:45:00.761Z,15.22
2019-05-02T00:47:37.329Z,15.18
2019-05-02T00:50:11.184Z,15.15
2019-05-02T00:52:41.879Z,15.20
2019-05-02T00:55:13.298Z,15.19
2019-05-02T00:57:44.800Z,15.29
2019-05-02T01:00:18.372Z,15.29
2019-05-02T01:02:50.665Z,15.27
2019-05-02T01:05:22.328Z,15.31
2019-05-02T01:07:55.886Z,15.31
2019-05-02T01:10:26.255Z,15.32
2019-05-02T01:12:57.709Z,15.20
2019-05-02T01:15:28.727Z,15.29
2019-05-02T01:18:01.175Z,15.28
2019-05-02T01:20:32.751Z,15.41
2019-05-02T01:23:04.013Z,15.36
2019-05-02T01:25:35.398Z,15.40
2019-05-02T01:28:12.600Z,15.45
2019-05-02T01:30:45.500Z,15.28
2019-05-02T01:33:24.382Z,15.22
2019-05-02T01:35:56.982Z,15.11
2019-05-02T01:38:46.152Z,15.03
2019-05-02T01:41:17.602Z,14.94
2019-05-02T01:43:48.550Z,14.82
2019-05-02T01:46:22.173Z,14.77
2019-05-02T01:48:52.483Z,14.78
2019-05-02T01:51:23.733Z,14.74
2019-05-02T01:53:55.185Z,14.90
2019-05-02T01:56:28.458Z,15.03
2019-05-02T01:58:59.215Z,15.11
2019-05-02T02:01:30.566Z,15.24
2019-05-02T02:04:02.023Z,15.16
2019-05-02T02:06:33.474Z,15.24
2019-05-02T02:09:08.431Z,15.38
2019-05-02T02:11:38.474Z,15.37
2019-05-02T02:14:12.859Z,15.36
2019-05-02T02:16:43.782Z,15.28
2019-05-02T02:19:19.373Z,15.29
2019-05-02T02:21:52.445Z,15.39
2019-05-02T02:24:38.213Z,15.52
2019-05-02T02:27:07.957Z,15.59
2019-05-02T02:29:43.881Z,15.57
2019-05-02T02:32:12.095Z,15.53
2019-05-02T02:34:43.859Z,15.58
2019-05-02T02:37:15.309Z,15.59
2019-05-02T02:39:48.714Z,15.56
2019-05-02T02:42:25.234Z,16.04
2019-05-02T02:44:57.040Z,16.33
2019-05-02T02:47:28.192Z,16.33
2019-05-02T02:50:02.608Z,16.46
2019-05-02T02:52:37.993Z,16.58
2019-05-02T02:55:06.313Z,16.59
2019-05-02T02:57:38.599Z,16.64
2019-05-02T03:00:11.160Z,16.68
2019-05-02T03:02:48.346Z,16.77
2019-05-02T03:05:18.635Z,16.70
2019-05-02T03:07:48.614Z,16.71
2019-05-02T03:10:20.095Z,16.79
2019-05-02T03:13:15.035Z,16.79
2019-05-02T03:15:49.115Z,16.78
2019-05-02T03:18:20.468Z,16.71
2019-05-02T03:20:51.828Z,16.76
2019-05-02T03:23:24.202Z,16.59
2019-05-02T03:25:55.446Z,16.77
2019-05-02T03:28:26.328Z,16.84
2019-05-02T03:30:57.639Z,16.86
2019-05-02T03:33:28.992Z,16.75
2019-05-02T03:36:00.442Z,16.90
2019-05-02T03:38:34.967Z,16.83
2019-05-02T03:41:04.948Z,16.79
2019-05-02T03:43:36.561Z,16.81
2019-05-02T03:46:13.554Z,16.80
2019-05-02T03:48:40.985Z,16.84
2019-05-02T03:51:20.988Z,16.31
2019-05-02T03:53:45.337Z,16.16
2019-05-02T03:56:16.391Z,16.06
2019-05-02T03:58:55.963Z,15.94
2019-05-02T04:01:20.599Z,15.95
2019-05-02T04:03:52.167Z,15.93
2019-05-02T04:06:23.884Z,15.85
2019-05-02T04:08:59.859Z,15.87
2019-05-02T04:11:37.878Z,15.90
2019-05-02T04:14:00.354Z,15.71
2019-05-02T04:16:31.805Z,15.76
2019-05-02T04:19:03.055Z,15.75
2019-05-02T04:21:34.301Z,15.65
2019-05-02T04:24:13.282Z,15.81
2019-05-02T04:26:38.547Z,15.73
2019-05-02T04:29:09.594Z,15.68
2019-05-02T04:31:40.745Z,15.75
2019-05-02T04:34:15.143Z,15.79
2019-05-02T04:36:46.805Z,15.81
2019-05-02T04:39:21.516Z,15.92
2019-05-02T04:41:50.602Z,15.99
2019-05-02T04:44:21.960Z,16.01
2019-05-02T04:47:02.674Z,16.25
2019-05-02T04:49:32.912Z,16.39
2019-05-02T04:52:06.011Z,16.41
2019-05-02T04:54:32.758Z,16.48
2019-05-02T04:57:04.211Z,16.54
2019-05-02T04:59:35.738Z,16.71
2019-05-02T05:02:08.993Z,16.76
2019-05-02T05:04:46.113Z,16.82
2019-05-02T05:07:13.085Z,16.78
2019-05-02T05:09:47.944Z,16.95
2019-05-02T05:12:19.292Z,16.91
2019-05-02T05:14:50.421Z,16.83
2019-05-02T05:17:25.102Z,16.89
2019-05-02T05:19:54.871Z,16.93
2019-05-02T05:22:28.275Z,16.94
2019-05-02T05:25:00.954Z,16.83
2019-05-02T05:27:32.285Z,16.86
2019-05-02T05:30:11.258Z,17.04
2019-05-02T05:32:38.824Z,17.03
2019-05-02T05:35:13.014Z,17.13
2019-05-02T05:37:49.005Z,17.23
2019-05-02T05:40:17.800Z,17.17
2019-05-02T05:42:48.914Z,17.20
2019-05-02T05:45:20.374Z,17.24
2019-05-02T05:47:52.337Z,17.23
2019-05-02T05:50:24.816Z,17.35
2019-05-02T05:52:59.342Z,17.34
2019-05-02T05:55:31.587Z,17.31
2019-05-02T05:58:12.359Z,17.24
2019-05-02T06:00:37.911Z,17.33
2019-05-02T06:03:13.681Z,17.48
2019-05-02T06:05:42.298Z,17.50
2019-05-02T06:08:18.341Z,17.51
2019-05-02T06:10:49.038Z,17.43
2019-05-02T06:13:20.711Z,17.36
2019-05-02T06:16:02.148Z,17.36
2019-05-02T06:18:28.381Z,17.58
2019-05-02T06:21:03.419Z,17.56
2019-05-02T06:23:36.452Z,17.74
2019-05-02T06:26:13.073Z,17.78
2019-05-02T06:28:41.649Z,17.99
2019-05-02T06:31:12.827Z,18.34
2019-05-02T06:33:44.648Z,18.40
2019-05-02T06:36:15.795Z,18.65
2019-05-02T06:38:47.341Z,18.75
2019-05-02T06:41:20.976Z,18.73
2019-05-02T06:43:51.791Z,18.68
2019-05-02T06:46:27.629Z,18.51
2019-05-02T06:48:55.817Z,18.66
2019-05-02T06:51:26.840Z,18.92
2019-05-02T06:53:58.113Z,19.15
2019-05-02T06:56:29.360Z,19.51
2019-05-02T06:59:02.238Z,19.79
2019-05-02T07:01:33.731Z,20.06
2019-05-02T07:04:04.989Z,20.41
2019-05-02T07:06:56.032Z,20.59
2019-05-02T07:09:09.311Z,20.59
2019-05-02T07:11:41.130Z,20.63
2019-05-02T07:14:13.885Z,20.51
2019-05-02T07:16:49.724Z,20.42
2019-05-02T07:19:37.539Z,20.46
2019-05-02T07:22:08.789Z,20.60
2019-05-02T07:24:39.852Z,20.60
2019-05-02T07:27:11.295Z,20.49
2019-05-02T07:29:42.507Z,20.04
2019-05-02T07:32:13.778Z,20.04
2019-05-02T07:34:48.245Z,19.95
2019-05-02T07:37:18.326Z,19.54
2019-05-02T07:39:49.372Z,19.54
2019-05-02T07:42:20.644Z,19.37
2019-05-02T07:44:52.175Z,19.37
2019-05-02T07:47:23.380Z,19.12
2019-05-02T07:49:54.622Z,19.29
2019-05-02T07:52:28.822Z,19.30
2019-05-02T07:55:01.111Z,19.53
2019-05-02T07:57:32.383Z,19.52
2019-05-02T08:00:08.598Z,19.45
2019-05-02T08:02:40.031Z,18.14
2019-05-02T08:05:15.779Z,17.89
2019-05-02T08:07:44.598Z,17.82
2019-05-02T08:10:21.707Z,17.74
2019-05-02T08:12:49.118Z,17.56
2019-05-02T08:15:24.317Z,17.49
2019-05-02T08:17:55.204Z,17.44
2019-05-02T08:20:26.551Z,17.66
2019-05-02T08:22:58.209Z,17.98
2019-05-02T08:25:29.306Z,18.28
2019-05-02T08:28:10.222Z,18.34
2019-05-02T08:30:42.911Z,18.72
2019-05-02T08:33:14.273Z,19.34
2019-05-02T08:35:45.913Z,19.34
2019-05-02T08:38:17.859Z,19.87
2019-05-02T08:40:50.368Z,19.74
2019-05-02T08:43:21.922Z,20.09
2019-05-02T08:45:53.285Z,20.23
2019-05-02T08:48:24.625Z,20.33
2019-05-02T08:50:55.871Z,20.31
2019-05-02T08:53:27.231Z,20.16
2019-05-02T08:55:58.641Z,19.70
2019-05-02T08:58:29.559Z,19.50
2019-05-02T09:01:00.974Z,19.32
2019-05-02T09:03:38.987Z,19.38
2019-05-02T09:06:06.327Z,19.52
2019-05-02T09:08:37.531Z,19.47
2019-05-02T09:11:14.170Z,19.40
2019-05-02T09:13:42.238Z,18.90
2019-05-02T09:16:13.487Z,18.44
2019-05-02T09:18:50.592Z,18.32
2019-05-02T09:21:17.717Z,18.32
2019-05-02T09:23:48.943Z,18.48
2019-05-02T09:26:33.270Z,18.58
2019-05-02T09:28:56.336Z,18.69
2019-05-02T09:31:26.415Z,19.02
2019-05-02T09:33:57.771Z,19.12
2019-05-02T09:36:29.232Z,19.08
2019-05-02T09:39:00.171Z,19.01
2019-05-02T09:41:35.964Z,19.00
2019-05-02T09:44:09.050Z,18.94
2019-05-02T09:46:38.016Z,18.90
2019-05-02T09:49:13.849Z,18.97
2019-05-02T09:51:45.394Z,19.02
2019-05-02T09:54:15.541Z,18.91
2019-05-02T09:56:47.034Z,18.84
2019-05-02T09:59:27.734Z,18.41
2019-05-02T10:01:52.726Z,18.51
2019-05-02T10:04:24.125Z,18.51
2019-05-02T10:06:55.680Z,19.06
2019-05-02T10:09:27.325Z,19.31
2019-05-02T10:11:58.692Z,19.50
2019-05-02T10:14:30.348Z,19.37
2019-05-02T10:17:05.685Z,19.45
2019-05-02T10:19:35.817Z,19.46
2019-05-02T10:22:07.349Z,19.23
2019-05-02T10:24:39.033Z,18.81
2019-05-02T10:27:12.511Z,18.57
2019-05-02T10:29:43.640Z,18.45
2019-05-02T10:32:16.778Z,17.77
2019-05-02T10:34:53.119Z,17.07
2019-05-02T10:37:21.734Z,16.65
2019-05-02T10:39:55.937Z,16.45
2019-05-02T10:42:28.069Z,16.43
2019-05-02T10:45:02.857Z,16.43
2019-05-02T10:47:36.356Z,16.53
2019-05-02T10:50:15.238Z,17.07
2019-05-02T10:52:46.631Z,17.44
2019-05-02T10:55:18.247Z,17.66
2019-05-02T10:57:52.559Z,17.66
2019-05-02T11:00:25.602Z,18.11
2019-05-02T11:02:58.643Z,18.85
2019-05-02T11:05:31.563Z,19.15
2019-05-02T11:08:06.183Z,19.15
2019-05-02T11:10:35.426Z,19.27
2019-05-02T11:13:08.932Z,19.12
2019-05-02T11:16:01.609Z,19.06
2019-05-02T12:04:56.363Z,17.19
2019-05-02T12:07:27.643Z,16.82
2019-05-02T12:10:02.636Z,16.71
2019-05-02T12:12:36.197Z,16.74
2019-05-02T12:15:05.974Z,16.58
2019-05-02T12:17:37.013Z,16.28
2019-05-02T12:20:08.668Z,16.56
2019-05-02T12:22:41.992Z,17.10
2019-05-02T12:25:12.948Z,18.09
2019-05-02T12:27:44.567Z,18.71
2019-05-02T12:30:15.722Z,19.12
2019-05-02T12:32:47.208Z,19.71
2019-05-02T12:35:18.620Z,19.86
2019-05-02T12:37:52.174Z,19.72
2019-05-02T12:40:22.654Z,19.60
2019-05-02T12:42:53.923Z,19.54
2019-05-02T12:45:25.203Z,18.96
2019-05-02T12:47:57.226Z,19.05
2019-05-02T12:50:28.686Z,19.55
2019-05-02T12:53:00.150Z,20.43
2019-05-02T12:55:32.566Z,21.23
2019-05-02T12:58:03.672Z,21.81
2019-05-02T13:00:34.851Z,22.20
2019-05-02T13:03:07.798Z,22.10
2019-05-02T13:05:39.055Z,21.59
2019-05-02T13:08:12.306Z,21.13
2019-05-02T13:11:06.400Z,21.99
2019-05-02T13:13:34.554Z,22.76
2019-05-02T13:16:06.185Z,22.26
2019-05-02T13:18:37.534Z,20.88
2019-05-02T13:21:15.137Z,19.99
2019-05-02T13:23:51.708Z,19.30
2019-05-02T13:26:26.934Z,20.20
2019-05-02T13:28:55.633Z,21.88
2019-05-02T13:31:29.014Z,22.76
2019-05-02T13:34:01.918Z,22.94
2019-05-02T13:36:44.876Z,23.07
2019-05-02T13:39:33.445Z,23.19
2019-05-02T13:42:04.798Z,23.14
2019-05-02T13:44:37.788Z,22.94
2019-05-02T13:47:12.261Z,23.31
2019-05-02T13:49:53.221Z,23.66
2019-05-02T13:52:17.536Z,23.44
2019-05-02T13:54:49.582Z,23.18
2019-05-02T13:57:21.917Z,23.31
2019-05-02T13:59:53.599Z,23.79
2019-05-02T14:02:42.496Z,22.83
2019-05-02T14:05:16.153Z,21.63
2019-05-02T14:07:55.572Z,20.70
2019-05-02T14:10:33.703Z,20.11
2019-05-02T14:13:03.247Z,19.78
2019-05-02T14:15:35.877Z,19.51
2019-05-02T14:18:07.330Z,20.59
2019-05-02T14:20:38.368Z,21.32
2019-05-02T14:23:09.312Z,21.39
2019-05-02T14:25:42.616Z,20.92
2019-05-02T14:28:13.671Z,20.93
2019-05-02T14:30:46.380Z,21.30
2019-05-02T14:33:23.046Z,22.45
2019-05-02T14:35:52.774Z,23.11
2019-05-02T14:38:23.957Z,22.53
2019-05-02T14:40:56.679Z,21.99
2019-05-02T14:43:48.018Z,21.59
2019-05-02T14:46:22.113Z,21.52
2019-05-02T14:48:53.105Z,22.27
2019-05-02T14:51:27.793Z,23.49
2019-05-02T14:54:01.920Z,24.78
2019-05-02T14:56:32.890Z,25.05
2019-05-02T14:59:04.523Z,24.06
2019-05-02T15:01:35.924Z,23.45
2019-05-02T15:04:08.381Z,22.60
2019-05-02T15:06:45.389Z,23.00
2019-05-02T15:09:16.755Z,23.93
2019-05-02T15:12:02.806Z,24.45
2019-05-02T15:14:34.721Z,24.65
2019-05-02T15:17:06.233Z,24.90
2019-05-02T15:19:37.627Z,23.99
2019-05-02T15:22:08.749Z,23.64
2019-05-02T15:24:42.226Z,23.42
2019-05-02T15:27:17.752Z,23.09
2019-05-02T15:29:46.339Z,23.32
2019-05-02T15:32:19.354Z,23.03
2019-05-02T15:34:54.990Z,22.90
2019-05-02T15:37:26.743Z,23.25
2019-05-02T15:42:32.008Z,24.01
2019-05-02T15:45:06.266Z,24.17
2019-05-02T15:47:41.570Z,23.91
2019-05-02T15:50:14.806Z,23.84
2019-05-02T15:52:44.962Z,23.80
2019-05-02T15:55:16.227Z,23.66
2019-05-02T15:57:49.390Z,23.03
2019-05-02T16:00:25.753Z,22.05
2019-05-02T16:03:02.883Z,20.64
2019-05-02T16:05:31.919Z,19.61
2019-05-02T16:08:08.203Z,18.88
2019-05-02T16:10:38.451Z,18.24
2019-05-02T16:13:13.430Z,17.45
2019-05-02T16:15:42.803Z,17.45
2019-05-02T16:18:14.176Z,17.13
2019-05-02T16:20:48.706Z,16.85
2019-05-02T16:23:29.867Z,16.60
2019-05-02T16:25:56.977Z,16.35
2019-05-02T16:28:25.837Z,16.27
2019-05-02T16:30:58.593Z,16.17
2019-05-02T16:33:32.315Z,16.13
2019-05-02T16:36:03.376Z,16.06
2019-05-02T16:38:35.224Z,15.94
2019-05-02T16:41:09.710Z,15.94
2019-05-02T16:43:39.193Z,15.93
2019-05-02T16:46:11.871Z,15.84
2019-05-02T16:48:43.426Z,15.88
2019-05-02T16:51:30.311Z,15.81
2019-05-02T16:53:50.373Z,15.65
2019-05-02T16:56:22.266Z,15.69
2019-05-02T16:58:55.143Z,15.56
2019-05-02T17:01:28.548Z,15.43
2019-05-02T17:04:05.189Z,15.29
2019-05-02T17:06:34.637Z,15.20
2019-05-02T17:09:09.158Z,15.19
2019-05-02T17:11:44.719Z,15.10
2019-05-02T17:14:16.098Z,15.12
2019-05-02T17:16:52.444Z,15.08
2019-05-02T17:19:21.621Z,14.97
2019-05-02T17:21:56.551Z,14.93
2019-05-02T17:24:27.702Z,14.77
2019-05-02T17:26:59.360Z,14.71
2019-05-02T17:29:32.231Z,14.63
2019-05-02T17:32:03.800Z,14.53
2019-05-02T17:34:36.170Z,14.45
2019-05-02T17:37:11.487Z,14.35
2019-05-02T17:39:42.660Z,14.32
2019-05-02T17:42:21.716Z,14.29
2019-05-02T17:44:51.882Z,14.28
2019-05-02T17:47:24.280Z,14.27
2019-05-02T17:49:57.404Z,14.27
2019-05-02T17:52:32.495Z,14.23
2019-05-02T17:55:05.850Z,14.18
2019-05-02T17:57:39.550Z,14.14
2019-05-02T18:00:22.845Z,14.06
2019-05-02T18:02:54.710Z,14.00
2019-05-02T18:05:29.562Z,13.92
2019-05-02T18:07:59.479Z,13.94
2019-05-02T18:10:32.315Z,13.91
2019-05-02T18:13:03.743Z,13.97
2019-05-02T18:15:36.306Z,14.00
2019-05-02T18:18:08.303Z,13.99
2019-05-02T18:20:42.703Z,14.00
2019-05-02T18:23:12.441Z,14.03
2019-05-02T18:25:43.804Z,14.09
2019-05-02T18:28:24.548Z,14.15
2019-05-02T18:30:50.077Z,14.18
2019-05-02T18:33:22.692Z,14.20
2019-05-02T18:35:53.716Z,14.24
2019-05-02T18:38:25.190Z,14.29
2019-05-02T18:41:00.361Z,14.32
2019-05-02T18:43:31.496Z,14.29
2019-05-02T18:46:07.396Z,14.29
2019-05-02T18:48:36.664Z,14.26
2019-05-02T18:51:10.539Z,14.21
2019-05-02T18:53:42.360Z,14.19
2019-05-02T18:56:13.823Z,14.23
2019-05-02T18:58:45.453Z,14.25
2019-05-02T19:01:18.482Z,14.27
2019-05-02T19:03:52.415Z,14.41
2019-05-02T19:06:23.408Z,14.31
2019-05-02T19:08:56.057Z,14.24
2019-05-02T19:11:33.701Z,14.18
2019-05-02T19:14:00.332Z,14.11
2019-05-02T19:16:32.004Z,13.98
2019-05-02T19:19:03.185Z,13.91
2019-05-02T19:21:37.792Z,13.82
2019-05-02T19:24:08.378Z,13.71
2019-05-02T19:26:48.652Z,13.65
2019-05-02T19:29:23.909Z,13.55
2019-05-02T19:31:54.699Z,13.52
2019-05-02T19:34:27.132Z,13.50
2019-05-02T19:37:03.021Z,13.53
2019-05-02T19:39:32.262Z,13.53
2019-05-02T19:42:03.853Z,13.57
2019-05-02T19:44:35.018Z,13.56
2019-05-02T19:47:08.404Z,13.55
2019-05-02T19:49:39.329Z,13.53
2019-05-02T19:52:10.349Z,13.48
2019-05-02T19:54:43.655Z,13.39
2019-05-02T19:57:17.071Z,13.31
2019-05-02T19:59:48.566Z,13.16
2019-05-02T20:02:22.179Z,13.03
2019-05-02T20:04:53.149Z,12.88
2019-05-02T20:07:24.702Z,12.78
2019-05-02T20:09:56.055Z,12.78
2019-05-02T20:12:27.093Z,12.78
2019-05-02T20:14:58.548Z,12.79
2019-05-02T20:17:29.987Z,12.85
2019-05-02T20:20:06.999Z,12.86
2019-05-02T20:22:36.356Z,13.23
2019-05-02T20:25:08.629Z,13.31
2019-05-02T20:27:42.054Z,13.30
2019-05-02T20:30:13.084Z,13.23
2019-05-02T20:32:44.463Z,13.23
2019-05-02T20:35:16.017Z,13.24
2019-05-02T20:37:47.575Z,13.25
2019-05-02T20:40:32.585Z,13.24
2019-05-02T20:43:03.687Z,13.22
2019-05-02T20:45:34.730Z,13.25
2019-05-02T20:48:06.177Z,13.24
2019-05-02T20:50:37.493Z,13.20
2019-05-02T20:53:08.770Z,13.21
2019-05-02T20:55:41.610Z,13.17
2019-05-02T20:58:13.025Z,13.15
2019-05-02T21:00:44.254Z,13.13
2019-05-02T21:03:15.571Z,13.10
2019-05-02T21:06:02.925Z,13.20
2019-05-02T21:08:44.019Z,13.22
2019-05-02T21:11:15.304Z,13.22
2019-05-02T21:13:46.401Z,13.18
2019-05-02T21:16:17.768Z,13.13
2019-05-02T21:18:48.926Z,13.07
2019-05-02T21:21:21.942Z,13.09
2019-05-02T21:23:53.983Z,13.13
2019-05-02T21:26:25.134Z,13.10
2019-05-02T21:28:56.483Z,13.09
2019-05-02T21:31:28.087Z,13.03
2019-05-02T21:33:59.540Z,12.96
2019-05-02T21:36:31.978Z,12.89
2019-05-02T21:39:03.633Z,12.87
2019-05-02T21:41:36.253Z,12.80
2019-05-02T21:44:07.676Z,12.82
2019-05-02T21:46:39.328Z,12.80
2019-05-02T21:49:12.051Z,12.75
2019-05-02T21:51:47.395Z,12.85
2019-05-02T21:54:27.226Z,12.95
2019-05-02T21:57:04.251Z,13.07
2019-05-02T21:59:35.825Z,13.19
2019-05-02T22:02:09.293Z,13.22
2019-05-02T22:04:42.312Z,13.11
2019-05-02T22:07:13.804Z,13.06
2019-05-02T22:09:46.473Z,13.07
2019-05-02T22:12:17.919Z,13.19
2019-05-02T22:14:49.573Z,13.28
2019-05-02T22:17:21.558Z,13.31
2019-05-02T22:19:53.107Z,13.41
2019-05-02T22:22:24.557Z,13.42
2019-05-02T22:24:55.714Z,13.46
2019-05-02T22:27:27.058Z,13.57
2019-05-02T22:29:58.234Z,13.62
2019-05-02T22:32:31.984Z,13.68
2019-05-02T22:35:03.876Z,13.64
2019-05-02T22:37:34.928Z,13.63
2019-05-02T22:40:16.116Z,13.59
2019-05-02T22:42:47.473Z,13.54
2019-05-02T22:45:18.787Z,13.46
2019-05-02T22:47:51.953Z,13.42
2019-05-02T22:50:24.164Z,13.46
2019-05-02T22:52:55.413Z,13.61
2019-05-02T22:55:26.879Z,13.73
2019-05-02T22:57:58.125Z,13.82
2019-05-02T23:00:29.420Z,13.79
2019-05-02T23:03:01.860Z,13.77
2019-05-02T23:05:34.417Z,13.78
2019-05-02T23:08:05.441Z,13.83
2019-05-02T23:10:37.046Z,13.78
2019-05-02T23:13:08.202Z,13.87
2019-05-02T23:15:39.539Z,13.91
2019-05-02T23:18:12.181Z,13.96
2019-05-02T23:20:43.331Z,14.01
2019-05-02T23:23:14.705Z,14.15
2019-05-02T23:25:47.466Z,14.26
2019-05-02T23:28:22.130Z,14.39
2019-05-02T23:30:53.078Z,14.41
2019-05-02T23:33:25.965Z,14.38
2019-05-02T23:35:57.256Z,14.33
2019-05-02T23:38:28.566Z,14.26
2019-05-02T23:40:59.921Z,14.17
2019-05-02T23:43:32.363Z,14.05
2019-05-02T23:46:03.724Z,13.95
2019-05-02T23:48:35.004Z,13.90
2019-05-02T23:51:06.254Z,13.82
2019-05-02T23:53:37.706Z,13.76
2019-05-02T23:56:08.853Z,13.70
2019-05-02T23:58:39.904Z,13.73
